Time;durP1;ratioP1;P1;durP2;ratioP2;P2;SDS_P1;SDS_P2;PMS_P1;PMS_P2;Temp;Humidity;BMP_temperature;BMP_pressure;BME280_temperature;BME280_humidity;BME280_pressure;Samples;Min_cycle;Max_cycle;Signal;HPM_P1;HPM_P2
2024/02/06 00:01:19;;;;;;;;;;;9.60;99.90;;;;;;5008742;28;19983;-67
2024/02/06 00:03:45;;;;;;;;;;;9.60;99.90;;;;;;5009280;28;19914;-69
2024/02/06 00:06:11;;;;;;;;;;;9.60;99.90;;;;;;5009111;28;19914;-68
2024/02/06 00:08:37;;;;;;;;;;;9.60;99.90;;;;;;5007150;28;20263;-67
2024/02/06 00:11:03;;;;;;;;;;;9.60;99.90;;;;;;5029159;28;19925;-67
2024/02/06 00:13:28;;;;;;;;;;;9.60;99.90;;;;;;5013984;28;19913;-68
2024/02/06 00:15:54;;;;;;;13.13;6.50;;;9.60;99.90;;;;;;5039654;28;20073;-68
2024/02/06 00:18:20;;;;;;;16.45;7.80;;;9.60;99.90;;;;;;5007215;28;19956;-69
2024/02/06 00:20:45;;;;;;;;;;;9.60;99.90;;;;;;5006603;28;19917;-68
2024/02/06 00:23:11;;;;;;;;;;;9.60;99.90;;;;;;5007034;28;19970;-67
2024/02/06 00:25:36;;;;;;;;;;;9.70;99.90;;;;;;5004491;28;20008;-68
2024/02/06 00:28:02;;;;;;;;;;;9.70;99.90;;;;;;5008343;28;20008;-69
2024/02/06 00:30:27;;;;;;;;;;;9.70;99.90;;;;;;5005103;28;19917;-67
2024/02/06 00:32:53;;;;;;;;;;;9.80;99.90;;;;;;5006912;28;19925;-69
2024/02/06 00:35:18;;;;;;;;;;;9.80;99.90;;;;;;5007641;28;19983;-68
2024/02/06 00:37:44;;;;;;;;;;;9.80;99.90;;;;;;5006138;28;19967;-68
2024/02/06 00:40:10;;;;;;;;;;;9.80;99.90;;;;;;5005550;28;19913;-67
2024/02/06 00:42:35;;;;;;;;;;;9.80;99.90;;;;;;5002398;28;20006;-71
2024/02/06 00:45:02;;;;;;;;;;;9.80;99.90;;;;;;5002430;28;19917;-68
2024/02/06 00:47:27;;;;;;;;;;;9.80;99.90;;;;;;5004154;28;19909;-67
2024/02/06 00:49:52;;;;;;;;;;;9.80;99.90;;;;;;5004379;28;20019;-68
2024/02/06 00:52:18;;;;;;;;;;;9.80;99.90;;;;;;5002685;28;19917;-67
2024/02/06 00:54:43;;;;;;;;;;;9.80;99.90;;;;;;5039643;28;19909;-69
2024/02/06 00:57:09;;;;;;;;;;;9.80;99.90;;;;;;5003567;28;20400;-67
2024/02/06 00:59:34;;;;;;;;;;;9.70;99.90;;;;;;5005745;28;20372;-68
2024/02/06 01:02:00;;;;;;;;;;;9.70;99.90;;;;;;5007373;28;19952;-68
2024/02/06 01:04:26;;;;;;;;;;;9.80;99.90;;;;;;5007303;28;19918;-67
2024/02/06 01:06:52;;;;;;;;;;;9.70;99.90;;;;;;5007165;28;19920;-67
2024/02/06 01:09:20;;;;;;;;;;;9.70;99.90;;;;;;5006279;28;19916;-68
2024/02/06 01:11:46;;;;;;;;;;;9.70;99.90;;;;;;5004356;28;19932;-67
2024/02/06 01:14:11;;;;;;;;;;;9.70;99.90;;;;;;5003056;28;20330;-67
2024/02/06 01:16:37;;;;;;;;;;;9.70;99.90;;;;;;5004209;28;19909;-70
2024/02/06 01:19:02;;;;;;;;;;;9.70;99.90;;;;;;5009572;28;20444;-67
2024/02/06 01:21:28;;;;;;;;;;;9.70;99.90;;;;;;5010764;28;19920;-67
2024/02/06 01:23:53;;;;;;;;;;;9.70;99.90;;;;;;5008330;28;19913;-68
2024/02/06 01:26:19;;;;;;;;;;;9.80;99.90;;;;;;5008070;28;20373;-67
2024/02/06 01:28:45;;;;;;;;;;;9.90;99.90;;;;;;5006076;28;19945;-68
2024/02/06 01:31:12;;;;;;;;;;;9.80;99.90;;;;;;5036322;28;19913;-67
2024/02/06 01:33:38;;;;;;;;;;;9.80;99.90;;;;;;5004103;28;19914;-69
2024/02/06 01:36:03;;;;;;;;;;;9.80;99.90;;;;;;5037555;28;19921;-69
2024/02/06 01:38:29;;;;;;;;;;;9.80;99.90;;;;;;5006146;28;19940;-68
2024/02/06 01:40:54;;;;;;;;;;;9.80;99.90;;;;;;5006977;28;20022;-69
2024/02/06 01:43:20;;;;;;;;;;;9.80;99.90;;;;;;5005745;28;19917;-68
2024/02/06 01:45:45;;;;;;;;;;;9.90;99.90;;;;;;5035207;28;19959;-69
2024/02/06 01:48:13;;;;;;;;;;;9.80;99.90;;;;;;5035524;28;19916;-67
2024/02/06 01:50:40;;;;;;;;;;;9.90;99.90;;;;;;5031094;28;19913;-68
2024/02/06 01:53:06;;;;;;;;;;;9.90;99.90;;;;;;5038503;28;19971;-69
2024/02/06 01:55:31;;;;;;;;;;;9.90;99.90;;;;;;5010713;28;20297;-69
2024/02/06 01:57:57;;;;;;;;;;;9.90;99.90;;;;;;5007928;28;19913;-67
2024/02/06 02:00:24;;;;;;;;;;;9.90;99.90;;;;;;5010758;28;20567;-68
2024/02/06 02:02:51;;;;;;;;;;;9.90;99.90;;;;;;5006592;28;20554;-67
2024/02/06 02:05:17;;;;;;;;;;;9.90;99.90;;;;;;5009921;28;19916;-68
2024/02/06 02:07:43;;;;;;;;;;;9.90;99.90;;;;;;5010086;28;20008;-68
2024/02/06 02:10:08;;;;;;;;;;;9.90;99.90;;;;;;5014091;28;19905;-68
2024/02/06 02:12:35;;;;;;;;;;;9.90;99.90;;;;;;5007791;28;19914;-67
2024/02/06 02:15:02;;;;;;;;;;;9.90;99.90;;;;;;5010546;28;20026;-69
2024/02/06 02:17:27;;;;;;;;;;;9.80;99.90;;;;;;5006271;28;19910;-67
2024/02/06 02:19:52;;;;;;;;;;;9.90;99.90;;;;;;5010371;28;19909;-69
2024/02/06 02:22:18;;;;;;;;;;;9.90;99.90;;;;;;5008249;28;19932;-68
2024/02/06 02:24:43;;;;;;;;;;;9.90;99.90;;;;;;5008731;28;19924;-68
2024/02/06 02:27:09;;;;;;;;;;;9.90;99.90;;;;;;5004037;28;20011;-68
2024/02/06 02:29:35;;;;;;;12.52;6.00;;;9.90;99.90;;;;;;5007941;28;20148;-70
2024/02/06 02:32:02;;;;;;;10.80;5.90;;;9.90;99.90;;;;;;5010683;28;20030;-68
2024/02/06 02:34:27;;;;;;;13.77;6.00;;;9.90;99.90;;;;;;5007722;28;20029;-68
2024/02/06 02:36:53;;;;;;;13.48;5.70;;;9.90;99.90;;;;;;5006327;28;20092;-68
2024/02/06 02:39:19;;;;;;;14.45;5.75;;;9.90;99.90;;;;;;5007330;28;20565;-68
2024/02/06 02:41:44;;;;;;;14.68;5.97;;;9.90;99.90;;;;;;5009307;28;20029;-67
2024/02/06 02:44:10;;;;;;;11.77;4.95;;;9.90;99.90;;;;;;5008020;28;20069;-69
2024/02/06 02:46:35;;;;;;;14.02;5.90;;;9.90;99.90;;;;;;5005390;28;20121;-69
2024/02/06 02:49:01;;;;;;;9.82;5.20;;;10.00;99.90;;;;;;5006731;28;20510;-70
2024/02/06 02:51:27;;;;;;;18.50;5.70;;;10.00;99.90;;;;;;5005401;28;20064;-67
2024/02/06 02:53:52;;;;;;;16.52;5.45;;;10.00;99.90;;;;;;5001985;28;20113;-69
2024/02/06 02:56:18;;;;;;;12.55;5.00;;;10.10;99.90;;;;;;5010208;28;20060;-67
2024/02/06 02:58:43;;;;;;;10.38;4.90;;;10.00;99.90;;;;;;5006022;28;20427;-70
2024/02/06 03:01:09;;;;;;;17.45;5.10;;;10.00;99.90;;;;;;5006476;28;20720;-67
2024/02/06 03:03:35;;;;;;;12.90;4.93;;;10.10;99.90;;;;;;5000439;28;20113;-66
2024/02/06 03:06:00;;;;;;;9.25;5.07;;;10.10;99.90;;;;;;5015629;28;20030;-69
2024/02/06 03:08:26;;;;;;;11.93;4.80;;;10.10;99.90;;;;;;5004135;28;20105;-69
2024/02/06 03:10:52;;;;;;;11.27;5.03;;;10.10;99.90;;;;;;5003495;28;20034;-68
2024/02/06 03:13:18;;;;;;;10.98;5.35;;;10.10;99.90;;;;;;5000961;28;20034;-69
2024/02/06 03:15:44;;;;;;;9.13;4.90;;;10.10;99.90;;;;;;5004760;28;20036;-68
2024/02/06 03:18:09;;;;;;;9.88;5.28;;;10.10;99.90;;;;;;4998464;28;20026;-68
2024/02/06 03:20:35;;;;;;;13.60;5.03;;;10.10;99.90;;;;;;5005612;28;20479;-68
2024/02/06 03:23:01;;;;;;;10.15;4.82;;;10.10;99.90;;;;;;5006206;28;20042;-68
2024/02/06 03:25:26;;;;;;;11.80;5.90;;;10.10;99.90;;;;;;5001873;28;20531;-68
2024/02/06 03:27:52;;;;;;;10.77;5.20;;;10.10;99.90;;;;;;5003640;28;20120;-68
2024/02/06 03:30:18;;;;;;;11.68;4.72;;;10.10;99.90;;;;;;5005116;28;20033;-69
2024/02/06 03:32:44;;;;;;;8.88;5.18;;;10.10;99.90;;;;;;5004051;28;20034;-67
2024/02/06 03:35:10;;;;;;;7.50;4.85;;;10.10;99.90;;;;;;5008153;28;20065;-68
2024/02/06 03:37:36;;;;;;;17.23;4.68;;;10.10;99.90;;;;;;5004757;28;20161;-67
2024/02/06 03:40:02;;;;;;;11.43;4.68;;;10.10;99.90;;;;;;5003948;28;20100;-70
2024/02/06 03:42:28;;;;;;;9.88;4.72;;;10.10;99.90;;;;;;4999741;28;20025;-67
2024/02/06 03:44:54;;;;;;;8.75;4.88;;;10.20;99.90;;;;;;5003706;28;20026;-67
2024/02/06 03:47:19;;;;;;;8.73;4.90;;;10.10;99.90;;;;;;5006632;28;20120;-68
2024/02/06 03:49:45;;;;;;;10.75;5.50;;;10.10;99.90;;;;;;5006368;28;20542;-68
2024/02/06 03:52:10;;;;;;;11.77;4.80;;;10.10;99.90;;;;;;5005900;28;20057;-69
2024/02/06 03:54:36;;;;;;;11.82;4.28;;;10.10;99.90;;;;;;5007594;28;20107;-68
2024/02/06 03:57:02;;;;;;;19.48;7.45;;;10.10;99.90;;;;;;5007360;28;20490;-67
2024/02/06 03:59:27;;;;;;;11.57;5.45;;;10.10;99.90;;;;;;5004705;28;20037;-68
2024/02/06 04:01:53;;;;;;;9.23;4.40;;;10.10;99.90;;;;;;5005246;28;20566;-67
2024/02/06 04:04:18;;;;;;;7.50;4.60;;;10.10;99.90;;;;;;5007318;28;20053;-69
2024/02/06 04:06:44;;;;;;;;;;;10.10;99.90;;;;;;5011572;28;20076;-67
2024/02/06 04:09:10;;;;;;;;;;;10.10;99.90;;;;;;5007840;28;20407;-68
2024/02/06 04:11:35;;;;;;;;;;;10.10;99.90;;;;;;5005901;28;19992;-68
2024/02/06 04:14:01;;;;;;;;;;;10.10;99.90;;;;;;5000359;28;19925;-68
2024/02/06 04:16:26;;;;;;;;;;;10.10;99.90;;;;;;5006369;28;19921;-67
2024/02/06 04:18:52;;;;;;;;;;;10.10;99.90;;;;;;5005379;28;20382;-68
2024/02/06 04:21:17;;;;;;;;;;;10.10;99.90;;;;;;5005895;28;19951;-68
2024/02/06 04:23:42;;;;;;;;;;;10.10;99.90;;;;;;5005738;28;19914;-68
2024/02/06 04:26:08;;;;;;;;;;;10.10;99.90;;;;;;5005965;28;19980;-68
2024/02/06 04:28:33;;;;;;;;;;;10.10;99.90;;;;;;5006378;28;19913;-69
2024/02/06 04:30:59;;;;;;;8.73;4.63;;;10.10;99.90;;;;;;5008284;28;19921;-68
2024/02/06 04:33:25;;;;;;;;;;;10.10;99.90;;;;;;5004340;28;20497;-69
2024/02/06 04:35:50;;;;;;;;;;;10.10;99.90;;;;;;5036845;28;20052;-70
2024/02/06 04:38:17;;;;;;;11.70;4.80;;;10.10;99.90;;;;;;5001235;28;19910;-68
2024/02/06 04:40:42;;;;;;;;;;;10.10;99.90;;;;;;5011024;28;19909;-67
2024/02/06 04:43:08;;;;;;;;;;;10.10;99.90;;;;;;5002910;28;19920;-71
2024/02/06 04:45:34;;;;;;;;;;;10.10;99.90;;;;;;5008265;28;19933;-69
2024/02/06 04:47:59;;;;;;;;;;;10.10;99.90;;;;;;4999126;28;19980;-69
2024/02/06 04:50:25;;;;;;;;;;;10.10;99.90;;;;;;5007332;28;20462;-68
2024/02/06 04:52:50;;;;;;;;;;;10.10;99.90;;;;;;5005011;28;19957;-69
2024/02/06 04:55:16;;;;;;;;;;;10.10;99.90;;;;;;5006404;28;19972;-70
2024/02/06 04:57:42;;;;;;;;;;;10.10;99.90;;;;;;5007331;28;19910;-68
2024/02/06 05:00:12;;;;;;;;;;;10.10;99.90;;;;;;5003689;28;19917;-69
2024/02/06 05:02:41;;;;;;;;;;;10.10;99.90;;;;;;5006252;28;19916;-67
2024/02/06 05:05:06;;;;;;;;;;;10.10;99.90;;;;;;5007327;28;19914;-67
2024/02/06 05:07:32;;;;;;;;;;;10.10;99.90;;;;;;5006275;28;19952;-67
2024/02/06 05:09:58;;;;;;;10.13;4.43;;;10.10;99.90;;;;;;5004956;28;19913;-67
2024/02/06 05:12:24;;;;;;;10.52;5.00;;;10.10;99.90;;;;;;5005483;28;20435;-67
2024/02/06 05:14:50;;;;;;;9.20;5.05;;;10.20;99.90;;;;;;5010865;28;20040;-69
2024/02/06 05:17:16;;;;;;;13.70;5.15;;;10.10;99.90;;;;;;5003237;28;20026;-68
2024/02/06 05:19:42;;;;;;;6.80;4.25;;;10.10;99.90;;;;;;5004333;28;20561;-71
2024/02/06 05:22:08;;;;;;;10.30;4.35;;;10.10;99.90;;;;;;5005852;28;20022;-69
2024/02/06 05:24:34;;;;;;;12.13;4.80;;;10.10;99.90;;;;;;5004598;28;20590;-68
2024/02/06 05:27:03;;;;;;;11.90;4.93;;;10.10;99.90;;;;;;5009687;28;20026;-68
2024/02/06 05:29:29;;;;;;;10.70;5.10;;;10.20;99.90;;;;;;5009912;28;20088;-67
2024/02/06 05:31:55;;;;;;;11.15;4.57;;;10.20;99.90;;;;;;5009337;28;20116;-68
2024/02/06 05:34:21;;;;;;;9.77;4.40;;;10.20;99.90;;;;;;5010224;28;20125;-69
2024/02/06 05:36:47;;;;;;;13.52;6.00;;;10.20;99.90;;;;;;5010092;28;20034;-68
2024/02/06 05:39:13;;;;;;;8.32;5.18;;;10.20;99.90;;;;;;5014268;28;20469;-69
2024/02/06 05:41:38;;;;;;;8.38;4.32;;;10.20;99.90;;;;;;5009669;28;20034;-69
2024/02/06 05:44:04;;;;;;;12.70;4.57;;;10.20;99.90;;;;;;5005182;28;20494;-68
2024/02/06 05:46:30;;;;;;;8.10;4.53;;;10.20;99.90;;;;;;5005083;28;20050;-69
2024/02/06 05:48:56;;;;;;;11.55;4.95;;;10.20;99.90;;;;;;5010279;28;20038;-69
2024/02/06 05:51:22;;;;;;;7.00;4.18;;;10.20;99.90;;;;;;5009024;28;20061;-67
2024/02/06 05:53:48;;;;;;;10.00;4.90;;;10.20;99.90;;;;;;5009967;28;20564;-68
2024/02/06 05:56:13;;;;;;;10.52;5.45;;;10.20;99.90;;;;;;5008520;28;20084;-68
2024/02/06 05:58:41;;;;;;;15.63;5.03;;;10.20;99.90;;;;;;5007627;28;20600;-68
2024/02/06 06:01:07;;;;;;;8.98;4.75;;;10.20;99.90;;;;;;5006226;28;20037;-69
2024/02/06 06:03:32;;;;;;;10.15;4.90;;;10.20;99.90;;;;;;5009566;28;20096;-69
2024/02/06 06:05:58;;;;;;;7.50;4.93;;;10.30;99.90;;;;;;5002180;28;20109;-68
2024/02/06 06:08:24;;;;;;;12.70;5.25;;;10.20;99.90;;;;;;5008399;28;20022;-68
2024/02/06 06:10:49;;;;;;;13.85;5.18;;;10.30;99.90;;;;;;5008596;28;20128;-67
2024/02/06 06:13:15;;;;;;;11.43;5.00;;;10.30;99.90;;;;;;5005054;28;20026;-67
2024/02/06 06:15:40;;;;;;;10.98;4.65;;;10.30;99.90;;;;;;5004996;28;20563;-68
2024/02/06 06:18:07;;;;;;;11.13;4.60;;;10.30;99.90;;;;;;5002783;28;20069;-67
2024/02/06 06:20:32;;;;;;;6.78;4.25;;;10.30;99.90;;;;;;5010002;28;20049;-69
2024/02/06 06:22:58;;;;;;;13.05;4.57;;;10.30;99.90;;;;;;5023103;28;20571;-67
2024/02/06 06:25:24;;;;;;;13.98;5.20;;;10.30;99.90;;;;;;5007077;28;20041;-68
2024/02/06 06:27:49;;;;;;;10.18;4.97;;;10.30;99.90;;;;;;5007748;28;21799;-70
2024/02/06 06:30:16;;;;;;;11.00;4.75;;;10.30;99.90;;;;;;5003112;28;20104;-68
2024/02/06 06:32:41;;;;;;;17.60;5.65;;;10.30;99.90;;;;;;5004105;28;20498;-68
2024/02/06 06:35:08;;;;;;;9.05;4.65;;;10.30;99.90;;;;;;4999943;28;20096;-68
2024/02/06 06:37:34;;;;;;;10.38;4.68;;;10.30;99.90;;;;;;5001806;28;20022;-67
2024/02/06 06:40:01;;;;;;;13.30;4.75;;;10.40;99.90;;;;;;5005474;28;20044;-68
2024/02/06 06:42:27;;;;;;;12.82;5.30;;;10.30;99.90;;;;;;5003732;28;20093;-69
2024/02/06 06:44:53;;;;;;;14.35;4.70;;;10.40;99.90;;;;;;5003938;28;20561;-68
2024/02/06 06:47:19;;;;;;;18.80;4.07;;;10.40;99.90;;;;;;5006261;28;20059;-67
2024/02/06 06:49:45;;;;;;;12.70;4.88;;;10.40;99.90;;;;;;5004483;28;20505;-68
2024/02/06 06:52:10;;;;;;;7.18;4.28;;;10.40;99.90;;;;;;4999516;28;20022;-69
2024/02/06 06:54:37;;;;;;;8.32;4.50;;;10.30;99.90;;;;;;5007474;28;20034;-68
2024/02/06 06:57:03;;;;;;;13.63;4.40;;;10.40;99.90;;;;;;5008228;28;20028;-67
2024/02/06 06:59:31;;;;;;;11.35;4.80;;;10.40;99.90;;;;;;5000124;28;20021;-68
2024/02/06 07:01:58;;;;;;;8.88;4.68;;;10.40;99.90;;;;;;5000066;28;20101;-68
2024/02/06 07:04:28;;;;;;;9.40;4.63;;;10.40;99.90;;;;;;5004218;28;20052;-71
2024/02/06 07:06:54;;;;;;;9.13;4.43;;;10.40;99.90;;;;;;5002186;28;20129;-69
2024/02/06 07:09:25;;;;;;;11.60;4.25;;;10.30;99.90;;;;;;5007065;28;20042;-67
2024/02/06 07:11:51;;;;;;;7.07;3.97;;;10.30;99.90;;;;;;5007484;28;20034;-70
2024/02/06 07:14:17;;;;;;;8.15;3.92;;;10.30;99.90;;;;;;5006126;28;19910;-68
2024/02/06 07:16:43;;;;;;;10.98;4.70;;;10.30;99.90;;;;;;5008117;28;20498;-69
2024/02/06 07:19:08;;;;;;;10.10;4.22;;;10.30;99.90;;;;;;5006445;28;20026;-68
2024/02/06 07:21:34;;;;;;;10.10;4.15;;;10.30;99.90;;;;;;5009815;28;20119;-68
2024/02/06 07:24:00;;;;;;;10.88;4.18;;;10.30;99.90;;;;;;5007797;28;20025;-68
2024/02/06 07:26:27;;;;;;;6.03;4.18;;;10.30;99.90;;;;;;5007953;28;20034;-68
2024/02/06 07:28:53;;;;;;;8.60;4.50;;;10.30;99.90;;;;;;5008845;28;20558;-68
2024/02/06 07:31:19;;;;;;;6.80;4.32;;;10.30;99.90;;;;;;5037509;28;20037;-69
2024/02/06 07:33:45;;;;;;;9.43;4.93;;;10.30;99.90;;;;;;5009443;28;20021;-68
2024/02/06 07:36:11;;;;;;;8.68;4.35;;;10.30;99.90;;;;;;5007626;28;20422;-67
2024/02/06 07:38:37;;;;;;;10.65;4.55;;;10.30;99.90;;;;;;5007631;28;20030;-67
2024/02/06 07:41:03;;;;;;;6.32;4.13;;;10.30;99.90;;;;;;5008939;28;20022;-67
2024/02/06 07:43:29;;;;;;;10.00;4.93;;;10.30;99.90;;;;;;5011092;28;20049;-68
2024/02/06 07:45:57;;;;;;;9.73;5.03;;;10.30;99.90;;;;;;5009818;28;20393;-67
2024/02/06 07:48:22;;;;;;;11.05;4.68;;;10.30;99.90;;;;;;5001880;28;20551;-68
2024/02/06 07:50:49;;;;;;;8.27;4.40;;;10.30;99.90;;;;;;5006715;28;20034;-67
2024/02/06 07:53:16;;;;;;;8.73;4.68;;;10.40;99.90;;;;;;5008938;28;20029;-66
2024/02/06 07:55:42;;;;;;;8.50;4.40;;;10.40;99.90;;;;;;5012380;28;20017;-68
2024/02/06 07:58:07;;;;;;;10.48;4.20;;;10.30;99.90;;;;;;5007154;28;20026;-67
2024/02/06 08:00:34;;;;;;;10.05;4.20;;;10.40;99.90;;;;;;5002398;28;20041;-68
2024/02/06 08:03:03;;;;;;;11.45;4.28;;;10.40;99.90;;;;;;5008613;28;20053;-68
2024/02/06 08:05:29;;;;;;;9.18;4.30;;;10.40;99.90;;;;;;5008431;28;20042;-68
2024/02/06 08:07:55;;;;;;;7.22;4.05;;;10.40;99.90;;;;;;5004309;28;20092;-67
2024/02/06 08:10:20;;;;;;;10.98;4.18;;;10.40;99.90;;;;;;5008216;28;20085;-66
2024/02/06 08:12:46;;;;;;;6.63;3.55;;;10.40;99.90;;;;;;5007458;28;20036;-68
2024/02/06 08:15:12;;;;;;;7.68;3.78;;;10.40;99.90;;;;;;5008483;28;20026;-66
2024/02/06 08:17:42;;;;;;;8.05;3.88;;;10.40;99.90;;;;;;5002976;28;20022;-67
2024/02/06 08:20:09;;;;;;;6.18;4.18;;;10.40;99.90;;;;;;5008845;28;20459;-68
2024/02/06 08:22:38;;;;;;;6.80;4.13;;;10.40;99.90;;;;;;5010225;28;20018;-66
2024/02/06 08:25:06;;;;;;;6.18;3.70;;;10.40;99.90;;;;;;5005614;28;20080;-66
2024/02/06 08:27:33;;;;;;;7.25;3.70;;;10.40;99.90;;;;;;5007859;28;20048;-68
2024/02/06 08:29:59;;;;;;;8.18;4.13;;;10.30;99.90;;;;;;5007975;28;20022;-68
2024/02/06 08:32:25;;;;;;;7.65;3.38;;;10.30;99.90;;;;;;5008040;28;20549;-66
2024/02/06 08:34:51;;;;;;;7.32;3.97;;;10.40;99.90;;;;;;5008422;28;20021;-67
2024/02/06 08:37:16;;;;;;;4.70;3.33;;;10.40;99.90;;;;;;5007322;28;20044;-67
2024/02/06 08:39:42;;;;;;;6.30;3.80;;;10.40;99.90;;;;;;5008111;28;20100;-67
2024/02/06 08:42:08;;;;;;;12.13;3.75;;;10.40;99.90;;;;;;5010289;28;20105;-68
2024/02/06 08:44:33;;;;;;;8.20;3.38;;;10.40;99.90;;;;;;5008038;28;20034;-66
2024/02/06 08:46:59;;;;;;;6.15;3.90;;;10.40;99.90;;;;;;5008203;28;20025;-67
2024/02/06 08:49:25;;;;;;;5.30;3.15;;;10.40;99.90;;;;;;5005966;28;20088;-66
2024/02/06 08:51:51;;;;;;;5.53;3.58;;;10.40;99.90;;;;;;5007867;28;20491;-70
2024/02/06 08:54:20;;;;;;;8.88;4.10;;;10.50;99.90;;;;;;5009883;28;20037;-69
2024/02/06 08:56:48;;;;;;;6.25;3.50;;;10.40;99.90;;;;;;5007527;28;20045;-68
2024/02/06 08:59:14;;;;;;;6.78;4.05;;;10.40;99.90;;;;;;5006027;28;20049;-68
2024/02/06 09:01:40;;;;;;;6.53;3.92;;;10.40;99.90;;;;;;5010739;28;20080;-69
2024/02/06 09:04:06;;;;;;;5.32;3.45;;;10.40;99.90;;;;;;5011376;28;20114;-68
2024/02/06 09:06:32;;;;;;;10.82;4.80;;;10.40;99.90;;;;;;5011366;28;20096;-68
2024/02/06 09:08:58;;;;;;;5.80;3.58;;;10.40;99.90;;;;;;5007283;28;20109;-68
2024/02/06 09:11:27;;;;;;;7.22;3.45;;;10.50;99.90;;;;;;5006011;28;20137;-66
2024/02/06 09:13:54;;;;;;;8.30;3.72;;;10.50;99.90;;;;;;5005252;28;20113;-66
2024/02/06 09:16:22;;;;;;;7.18;4.00;;;10.50;99.90;;;;;;5005899;28;20018;-67
2024/02/06 09:18:54;;;;;;;7.07;3.50;;;10.50;99.90;;;;;;5007059;28;20034;-67
2024/02/06 09:21:20;;;;;;;5.95;3.53;;;10.50;99.90;;;;;;5007248;28;20042;-68
2024/02/06 09:23:46;;;;;;;4.25;3.13;;;10.60;99.90;;;;;;5007846;28;20034;-68
2024/02/06 09:26:15;;;;;;;5.15;3.78;;;10.60;99.90;;;;;;5013437;28;20114;-66
2024/02/06 09:28:42;;;;;;;6.97;4.22;;;10.60;99.90;;;;;;5007547;28;20030;-68
2024/02/06 09:31:11;;;;;;;8.77;4.60;;;10.50;99.90;;;;;;5007356;28;20048;-67
2024/02/06 09:33:37;;;;;;;8.15;4.50;;;10.60;99.90;;;;;;5007243;28;20026;-66
2024/02/06 09:36:04;;;;;;;10.10;4.28;;;10.60;99.90;;;;;;5003761;28;20030;-69
2024/02/06 09:38:29;;;;;;;14.02;4.60;;;10.60;99.90;;;;;;5005910;28;20025;-67
2024/02/06 09:40:56;;;;;;;10.52;4.28;;;10.60;99.90;;;;;;5007600;28;20030;-65
2024/02/06 09:43:23;;;;;;;10.00;4.03;;;10.60;99.90;;;;;;5006996;28;20022;-70
2024/02/06 09:45:48;;;;;;;10.98;4.20;;;10.70;99.90;;;;;;5006369;28;20033;-67
2024/02/06 09:48:14;;;;;;;11.77;4.35;;;10.70;99.90;;;;;;5006002;28;20026;-68
2024/02/06 09:50:40;;;;;;;12.25;4.22;;;10.70;99.90;;;;;;5014065;28;20030;-67
2024/02/06 09:53:08;;;;;;;5.05;3.90;;;10.70;99.90;;;;;;5007528;28;20038;-69
2024/02/06 09:55:35;;;;;;;;;;;10.70;99.90;;;;;;5006401;28;20026;-69
2024/02/06 09:58:03;;;;;;;8.60;3.95;;;10.70;99.90;;;;;;5005100;28;19996;-66
2024/02/06 10:00:30;;;;;;;9.35;4.03;;;10.70;99.90;;;;;;5007114;28;20030;-69
2024/02/06 10:02:58;;;;;;;10.43;5.15;;;10.80;99.90;;;;;;5007090;28;20108;-66
2024/02/06 10:05:31;;;;;;;12.68;3.80;;;10.80;99.90;;;;;;5006783;28;20037;-67
2024/02/06 10:07:57;;;;;;;13.05;4.47;;;10.80;99.90;;;;;;5004399;28;20580;-68
2024/02/06 10:10:24;;;;;;;13.85;4.72;;;10.80;99.90;;;;;;5006374;28;20022;-68
2024/02/06 10:12:49;;;;;;;9.20;4.07;;;10.90;99.90;;;;;;5015123;28;20028;-67
2024/02/06 10:15:23;;;;;;;13.23;4.00;;;10.90;99.90;;;;;;5010481;28;20022;-67
2024/02/06 10:17:49;;;;;;;8.32;4.15;;;10.90;99.90;;;;;;5010364;28;20018;-69
2024/02/06 10:20:15;;;;;;;8.55;3.95;;;10.90;99.90;;;;;;5008491;28;20024;-69
2024/02/06 10:22:41;;;;;;;7.47;3.72;;;11.00;99.90;;;;;;5009280;28;20769;-69
2024/02/06 10:25:08;;;;;;;7.90;3.60;;;11.00;99.90;;;;;;5009287;28;20068;-69
2024/02/06 10:27:34;;;;;;;11.80;4.32;;;11.00;99.90;;;;;;5007090;28;20033;-69
2024/02/06 10:30:06;;;;;;;12.68;3.75;;;11.00;99.90;;;;;;5010123;28;20127;-69
2024/02/06 10:32:33;;;;;;;11.18;4.25;;;11.10;99.90;;;;;;5010446;28;20014;-67
2024/02/06 10:35:04;;;;;;;13.88;4.80;;;11.10;99.90;;;;;;5008774;28;20029;-70
2024/02/06 10:37:33;;;;;;;13.32;3.92;;;11.10;99.90;;;;;;5010304;28;20156;-69
2024/02/06 10:39:59;;;;;;;6.53;3.95;;;11.10;99.90;;;;;;5010065;28;20077;-68
2024/02/06 10:42:25;;;;;;;6.45;3.67;;;11.10;99.90;;;;;;5009885;28;20018;-69
2024/02/06 10:44:55;;;;;;;8.07;3.33;;;11.10;99.90;;;;;;5010096;28;20041;-68
2024/02/06 10:47:22;;;;;;;9.75;3.70;;;11.10;99.90;;;;;;5008333;28;20036;-69
2024/02/06 10:49:47;;;;;;;10.75;3.80;;;11.10;99.90;;;;;;5009726;28;20172;-67
2024/02/06 10:52:15;;;;;;;7.85;3.80;;;11.10;99.90;;;;;;5007947;28;20108;-69
2024/02/06 10:54:41;;;;;;;7.82;3.58;;;11.10;99.90;;;;;;5010014;28;20483;-67
2024/02/06 10:57:07;;;;;;;6.85;3.55;;;11.10;99.90;;;;;;5013108;28;20030;-67
2024/02/06 11:00:03;;;;;;;8.10;3.97;;;11.10;99.90;;;;;;5007619;28;20025;-67
2024/02/06 11:02:34;;;;;;;6.72;3.25;;;11.10;99.90;;;;;;5008841;28;20117;-67
2024/02/06 11:05:37;;;;;;;5.63;3.53;;;11.10;99.90;;;;;;5007436;28;20034;-69
2024/02/06 11:08:09;;;;;;;7.85;3.70;;;11.10;99.90;;;;;;5009275;28;20061;-67
2024/02/06 11:10:44;;;;;;;8.32;3.58;;;11.10;99.90;;;;;;5012649;28;20065;-68
2024/02/06 11:13:39;;;;;;;7.60;3.25;;;11.10;99.90;;;;;;5037785;28;20080;-66
2024/02/06 11:16:08;;;;;;;10.73;3.40;;;11.20;99.90;;;;;;5012591;28;20034;-67
2024/02/06 11:18:40;;;;;;;12.02;5.00;;;11.20;99.90;;;;;;5009312;28;20034;-67
2024/02/06 11:21:08;;;;;;;6.82;3.45;;;11.20;99.90;;;;;;5005536;28;20030;-68
2024/02/06 11:23:34;;;;;;;10.63;3.58;;;11.20;99.90;;;;;;5009156;28;20030;-68
2024/02/06 11:26:01;;;;;;;9.68;3.63;;;11.20;99.90;;;;;;5009561;28;20034;-67
2024/02/06 11:28:29;;;;;;;6.22;3.20;;;11.20;99.90;;;;;;5009195;28;20018;-67
2024/02/06 11:30:59;;;;;;;8.02;3.75;;;11.10;99.90;;;;;;5008712;28;20026;-68
2024/02/06 11:33:32;;;;;;;12.70;4.10;;;11.10;99.90;;;;;;5009246;28;20033;-68
2024/02/06 11:36:16;;;;;;;9.82;3.85;;;11.20;99.90;;;;;;5011956;28;20549;-68
2024/02/06 11:38:44;;;;;;;7.13;3.67;;;11.20;99.90;;;;;;5006422;28;20024;-69
2024/02/06 11:41:16;;;;;;;9.52;3.65;;;11.20;99.90;;;;;;5009546;28;20014;-68
2024/02/06 11:43:42;;;;;;;8.93;4.22;;;11.20;99.90;;;;;;5006295;28;20049;-67
2024/02/06 11:46:08;;;;;;;9.73;4.15;;;11.20;99.90;;;;;;5006454;28;20145;-67
2024/02/06 11:48:34;;;;;;;7.82;3.85;;;11.10;99.90;;;;;;5007873;28;20050;-67
2024/02/06 11:51:00;;;;;;;8.50;3.88;;;11.10;99.90;;;;;;5007741;28;20453;-68
2024/02/06 11:53:27;;;;;;;9.48;3.75;;;11.20;99.90;;;;;;5011025;28;20037;-68
2024/02/06 11:56:02;;;;;;;11.27;4.03;;;11.20;99.90;;;;;;5008592;28;20053;-68
2024/02/06 11:58:28;;;;;;;6.82;3.70;;;11.20;99.90;;;;;;5008423;28;20057;-69
2024/02/06 12:00:58;;;;;;;10.13;3.85;;;11.20;99.90;;;;;;5006503;28;20032;-68
2024/02/06 12:03:24;;;;;;;7.47;3.63;;;11.30;99.90;;;;;;5007437;28;20052;-69
2024/02/06 12:05:50;;;;;;;8.38;3.33;;;11.30;99.90;;;;;;5005664;28;20041;-67
2024/02/06 12:08:20;;;;;;;15.23;3.70;;;11.30;99.90;;;;;;5010009;28;20073;-67
2024/02/06 12:10:47;;;;;;;9.60;3.17;;;11.30;99.90;;;;;;5011046;28;20109;-67
2024/02/06 12:13:13;;;;;;;11.95;3.45;;;11.40;99.90;;;;;;5010556;28;20018;-69
2024/02/06 12:15:39;;;;;;;9.20;3.50;;;11.40;99.90;;;;;;5006397;28;20026;-67
2024/02/06 12:18:12;;;;;;;10.77;3.65;;;11.50;99.90;;;;;;5004510;28;20398;-68
2024/02/06 12:20:40;;;;;;;9.00;3.30;;;11.50;99.90;;;;;;5008388;28;20049;-67
2024/02/06 12:23:07;;;;;;;10.48;4.60;;;11.50;99.90;;;;;;5004787;28;20025;-70
2024/02/06 12:25:34;;;;;;;10.25;3.50;;;11.60;99.90;;;;;;5008227;28;20080;-67
2024/02/06 12:28:07;;;;;;;8.65;3.15;;;11.60;99.90;;;;;;5006396;28;20042;-68
2024/02/06 12:30:34;;;;;;;10.57;3.15;;;11.60;99.90;;;;;;5010214;28;20030;-68
2024/02/06 12:33:01;;;;;;;7.05;2.92;;;11.60;99.90;;;;;;5011967;28;20057;-69
2024/02/06 12:35:28;;;;;;;13.73;3.63;;;11.70;99.90;;;;;;5003922;28;20021;-67
2024/02/06 12:37:58;;;;;;;14.43;3.20;;;11.60;99.90;;;;;;5008000;28;20113;-67
2024/02/06 12:40:29;;;;;;;11.77;2.75;;;11.70;99.90;;;;;;5003946;28;20109;-66
2024/02/06 12:42:59;;;;;;;8.40;2.83;;;11.70;99.90;;;;;;5007836;28;20049;-67
2024/02/06 12:45:26;;;;;;;12.65;2.92;;;11.70;99.90;;;;;;5005476;28;20029;-68
2024/02/06 12:47:52;;;;;;;11.15;2.85;;;11.80;99.90;;;;;;5014879;28;20033;-69
2024/02/06 12:50:18;;;;;;;8.70;2.78;;;11.80;99.90;;;;;;5007547;28;20039;-67
2024/02/06 12:52:44;;;;;;;9.18;2.53;;;11.80;99.90;;;;;;5007608;28;20033;-67
2024/02/06 12:55:14;;;;;;;11.50;2.57;;;11.80;99.90;;;;;;5014995;28;20104;-68
2024/02/06 12:57:44;;;;;;;6.53;2.60;;;11.90;99.90;;;;;;5006192;28;21196;-68
2024/02/06 13:00:11;;;;;;;6.18;2.35;;;11.90;99.90;;;;;;5006611;28;20028;-69
2024/02/06 13:02:41;;;;;;;7.28;2.15;;;11.90;99.90;;;;;;5006033;28;20014;-66
2024/02/06 13:05:14;;;;;;;6.88;1.90;;;11.90;99.90;;;;;;5007497;28;20088;-68